sensor_id;sensor_type;location;lat;lon;timestamp;pressure;altitude;pressure_sealevel;temperature;humidity
43820;BME280;67762;52.476;6.046;2023-04-23T00:02:03;100777.84;;;7.46;94.50
43820;BME280;67762;52.476;6.046;2023-04-23T00:04:30;100775.59;;;7.51;95.18
43820;BME280;67762;52.476;6.046;2023-04-23T00:06:59;100774.28;;;7.55;95.08
43820;BME280;67762;52.476;6.046;2023-04-23T00:09:27;100778.19;;;7.61;95.50
43820;BME280;67762;52.476;6.046;2023-04-23T00:11:54;100774.41;;;7.63;94.36
43820;BME280;67762;52.476;6.046;2023-04-23T00:14:20;100772.28;;;7.67;95.51
43820;BME280;67762;52.476;6.046;2023-04-23T00:16:46;100766.69;;;7.70;94.94
43820;BME280;67762;52.476;6.046;2023-04-23T00:19:12;100772.00;;;7.70;94.52
43820;BME280;67762;52.476;6.046;2023-04-23T00:21:38;100767.66;;;7.69;95.58
43820;BME280;67762;52.476;6.046;2023-04-23T00:24:03;100766.97;;;7.67;94.85
43820;BME280;67762;52.476;6.046;2023-04-23T00:26:29;100771.31;;;7.68;95.19
43820;BME280;67762;52.476;6.046;2023-04-23T00:28:55;100765.34;;;7.66;94.76
43820;BME280;67762;52.476;6.046;2023-04-23T00:31:20;100773.44;;;7.64;94.63
43820;BME280;67762;52.476;6.046;2023-04-23T00:33:47;100769.94;;;7.64;94.78
43820;BME280;67762;52.476;6.046;2023-04-23T00:36:12;100762.41;;;7.59;94.80
43820;BME280;67762;52.476;6.046;2023-04-23T00:38:38;100760.59;;;7.60;95.53
43820;BME280;67762;52.476;6.046;2023-04-23T00:41:03;100764.09;;;7.60;95.32
43820;BME280;67762;52.476;6.046;2023-04-23T00:43:30;100759.47;;;7.62;95.83
43820;BME280;67762;52.476;6.046;2023-04-23T00:45:56;100759.75;;;7.59;95.82
43820;BME280;67762;52.476;6.046;2023-04-23T00:48:21;100752.63;;;7.60;94.78
43820;BME280;67762;52.476;6.046;2023-04-23T00:50:47;100757.56;;;7.55;95.34
43820;BME280;67762;52.476;6.046;2023-04-23T00:53:13;100748.19;;;7.51;94.82
43820;BME280;67762;52.476;6.046;2023-04-23T00:55:39;100740.22;;;7.51;95.85
43820;BME280;67762;52.476;6.046;2023-04-23T00:58:05;100735.59;;;7.53;95.19
43820;BME280;67762;52.476;6.046;2023-04-23T01:00:32;100735.59;;;7.53;95.32
43820;BME280;67762;52.476;6.046;2023-04-23T01:02:59;100740.06;;;7.52;95.09
43820;BME280;67762;52.476;6.046;2023-04-23T01:05:26;100735.47;;;7.54;95.58
43820;BME280;67762;52.476;6.046;2023-04-23T01:07:52;100739.09;;;7.53;95.62
43820;BME280;67762;52.476;6.046;2023-04-23T01:10:18;100746.09;;;7.54;95.73
43820;BME280;67762;52.476;6.046;2023-04-23T01:12:45;100735.75;;;7.51;95.45
43820;BME280;67762;52.476;6.046;2023-04-23T01:15:12;100741.06;;;7.51;95.74
43820;BME280;67762;52.476;6.046;2023-04-23T01:17:38;100721.81;;;7.49;95.41
43820;BME280;67762;52.476;6.046;2023-04-23T01:20:05;100735.50;;;7.45;94.85
43820;BME280;67762;52.476;6.046;2023-04-23T01:22:33;100734.66;;;7.44;94.78
43820;BME280;67762;52.476;6.046;2023-04-23T01:24:59;100734.81;;;7.43;95.66
43820;BME280;67762;52.476;6.046;2023-04-23T01:27:25;100728.13;;;7.39;95.81
43820;BME280;67762;52.476;6.046;2023-04-23T01:29:51;100725.34;;;7.31;95.89
43820;BME280;67762;52.476;6.046;2023-04-23T01:32:17;100732.47;;;7.30;94.73
43820;BME280;67762;52.476;6.046;2023-04-23T01:34:45;100726.94;;;7.24;95.31
43820;BME280;67762;52.476;6.046;2023-04-23T01:37:12;100735.31;;;7.19;94.88
43820;BME280;67762;52.476;6.046;2023-04-23T01:39:38;100723.78;;;7.11;95.58
43820;BME280;67762;52.476;6.046;2023-04-23T01:42:05;100720.69;;;7.05;95.06
43820;BME280;67762;52.476;6.046;2023-04-23T01:44:31;100722.94;;;7.00;94.77
43820;BME280;67762;52.476;6.046;2023-04-23T01:46:57;100712.22;;;6.92;95.58
43820;BME280;67762;52.476;6.046;2023-04-23T01:49:23;100716.97;;;6.89;95.32
43820;BME280;67762;52.476;6.046;2023-04-23T01:51:48;100715.72;;;6.83;95.28
43820;BME280;67762;52.476;6.046;2023-04-23T01:54:14;100711.25;;;6.84;94.99
43820;BME280;67762;52.476;6.046;2023-04-23T01:56:39;100709.63;;;6.83;95.90
43820;BME280;67762;52.476;6.046;2023-04-23T01:59:05;100720.22;;;6.83;94.64
43820;BME280;67762;52.476;6.046;2023-04-23T02:01:43;100710.28;;;6.85;95.66
43820;BME280;67762;52.476;6.046;2023-04-23T02:04:09;100708.31;;;6.87;95.28
43820;BME280;67762;52.476;6.046;2023-04-23T02:06:36;100711.53;;;6.90;95.24
43820;BME280;67762;52.476;6.046;2023-04-23T02:09:01;100711.38;;;6.92;94.82
43820;BME280;67762;52.476;6.046;2023-04-23T02:11:27;100702.28;;;6.94;95.81
43820;BME280;67762;52.476;6.046;2023-04-23T02:13:52;100703.81;;;6.97;95.69
43820;BME280;67762;52.476;6.046;2023-04-23T02:16:18;100702.56;;;7.01;95.47
43820;BME280;67762;52.476;6.046;2023-04-23T02:18:44;100707.03;;;7.00;95.25
43820;BME280;67762;52.476;6.046;2023-04-23T02:21:10;100698.09;;;7.01;95.07
43820;BME280;67762;52.476;6.046;2023-04-23T02:23:37;100700.47;;;7.04;94.94
43820;BME280;67762;52.476;6.046;2023-04-23T02:26:03;100690.25;;;7.10;95.13
43820;BME280;67762;52.476;6.046;2023-04-23T02:28:28;100696.25;;;7.12;94.86
43820;BME280;67762;52.476;6.046;2023-04-23T02:30:54;100696.94;;;7.14;94.92
43820;BME280;67762;52.476;6.046;2023-04-23T02:33:19;100693.97;;;7.17;95.36
43820;BME280;67762;52.476;6.046;2023-04-23T02:35:45;100695.66;;;7.18;94.91
43820;BME280;67762;52.476;6.046;2023-04-23T02:38:11;100683.09;;;7.20;95.20
43820;BME280;67762;52.476;6.046;2023-04-23T02:40:36;100688.09;;;7.23;95.55
43820;BME280;67762;52.476;6.046;2023-04-23T02:43:02;100688.78;;;7.25;94.95
43820;BME280;67762;52.476;6.046;2023-04-23T02:45:28;100679.84;;;7.26;95.23
43820;BME280;67762;52.476;6.046;2023-04-23T02:47:53;100696.63;;;7.26;94.92
43820;BME280;67762;52.476;6.046;2023-04-23T02:50:19;100691.16;;;7.28;94.94
43820;BME280;67762;52.476;6.046;2023-04-23T02:52:44;100682.06;;;7.30;95.81
43820;BME280;67762;52.476;6.046;2023-04-23T02:55:12;100683.59;;;7.33;95.96
43820;BME280;67762;52.476;6.046;2023-04-23T02:57:37;100683.44;;;7.34;95.82
43820;BME280;67762;52.476;6.046;2023-04-23T03:00:04;100683.28;;;7.36;94.83
43820;BME280;67762;52.476;6.046;2023-04-23T03:02:38;100678.69;;;7.38;95.56
43820;BME280;67762;52.476;6.046;2023-04-23T03:05:04;100665.25;;;7.39;95.37
43820;BME280;67762;52.476;6.046;2023-04-23T03:07:30;100672.25;;;7.40;95.38
43820;BME280;67762;52.476;6.046;2023-04-23T03:09:56;100672.25;;;7.40;95.70
43820;BME280;67762;52.476;6.046;2023-04-23T03:12:22;100664.41;;;7.39;95.69
43820;BME280;67762;52.476;6.046;2023-04-23T03:14:48;100661.91;;;7.37;95.53
43820;BME280;67762;52.476;6.046;2023-04-23T03:17:13;100667.34;;;7.36;95.09
43820;BME280;67762;52.476;6.046;2023-04-23T03:19:39;100654.94;;;7.36;95.46
43820;BME280;67762;52.476;6.046;2023-04-23T03:22:05;100654.09;;;7.36;95.02
43820;BME280;67762;52.476;6.046;2023-04-23T03:24:32;100655.78;;;7.37;95.08
43820;BME280;67762;52.476;6.046;2023-04-23T03:26:58;100650.34;;;7.38;96.01
43820;BME280;67762;52.476;6.046;2023-04-23T03:29:23;100647.50;;;7.40;95.99
43820;BME280;67762;52.476;6.046;2023-04-23T03:31:49;100642.22;;;7.40;95.64
43820;BME280;67762;52.476;6.046;2023-04-23T03:34:15;100648.50;;;7.39;95.91
43820;BME280;67762;52.476;6.046;2023-04-23T03:36:40;100650.16;;;7.40;95.59
43820;BME280;67762;52.476;6.046;2023-04-23T03:39:06;100642.59;;;7.45;95.51
43820;BME280;67762;52.476;6.046;2023-04-23T03:41:47;100643.97;;;7.49;95.77
43820;BME280;67762;52.476;6.046;2023-04-23T03:44:15;100636.53;;;7.52;95.62
43820;BME280;67762;52.476;6.046;2023-04-23T03:46:43;100643.38;;;7.55;95.22
43820;BME280;67762;52.476;6.046;2023-04-23T03:49:09;100635.09;;;7.58;95.23
43820;BME280;67762;52.476;6.046;2023-04-23T03:51:35;100646.25;;;7.61;95.35
43820;BME280;67762;52.476;6.046;2023-04-23T03:54:00;100631.00;;;7.63;95.25
43820;BME280;67762;52.476;6.046;2023-04-23T03:56:39;100635.34;;;7.64;95.22
43820;BME280;67762;52.476;6.046;2023-04-23T03:59:27;100628.91;;;7.67;95.17
43820;BME280;67762;52.476;6.046;2023-04-23T04:01:55;100629.75;;;7.68;95.17
43820;BME280;67762;52.476;6.046;2023-04-23T04:04:20;100622.63;;;7.68;95.71
43820;BME280;67762;52.476;6.046;2023-04-23T04:06:47;100622.63;;;7.68;95.92
43820;BME280;67762;52.476;6.046;2023-04-23T04:09:13;100627.75;;;7.70;95.56
43820;BME280;67762;52.476;6.046;2023-04-23T04:11:39;100623.28;;;7.70;95.13
43820;BME280;67762;52.476;6.046;2023-04-23T04:14:05;100616.16;;;7.71;95.56
43820;BME280;67762;52.476;6.046;2023-04-23T04:16:31;100622.31;;;7.71;95.69
43820;BME280;67762;52.476;6.046;2023-04-23T04:18:56;100619.66;;;7.71;95.20
43820;BME280;67762;52.476;6.046;2023-04-23T04:21:22;100611.53;;;7.73;95.44
43820;BME280;67762;52.476;6.046;2023-04-23T04:23:47;100622.00;;;7.74;95.79
43820;BME280;67762;52.476;6.046;2023-04-23T04:26:13;100609.56;;;7.75;95.55
43820;BME280;67762;52.476;6.046;2023-04-23T04:28:39;100607.91;;;7.74;95.41
43820;BME280;67762;52.476;6.046;2023-04-23T04:31:05;100606.09;;;7.74;95.57
43820;BME280;67762;52.476;6.046;2023-04-23T04:33:32;100603.41;;;7.74;95.45
43820;BME280;67762;52.476;6.046;2023-04-23T04:36:00;100605.38;;;7.72;95.81
43820;BME280;67762;52.476;6.046;2023-04-23T04:38:26;100601.06;;;7.71;95.51
43820;BME280;67762;52.476;6.046;2023-04-23T04:40:56;100594.06;;;7.70;96.20
43820;BME280;67762;52.476;6.046;2023-04-23T04:43:26;100615.31;;;7.70;95.50
43820;BME280;67762;52.476;6.046;2023-04-23T04:45:52;100625.66;;;7.73;96.14
43820;BME280;67762;52.476;6.046;2023-04-23T04:48:18;100632.47;;;7.76;96.17
43820;BME280;67762;52.476;6.046;2023-04-23T04:50:44;100628.53;;;7.80;95.46
43820;BME280;67762;52.476;6.046;2023-04-23T04:53:10;100626.56;;;7.82;95.29
43820;BME280;67762;52.476;6.046;2023-04-23T04:55:36;100616.47;;;7.85;95.73
43820;BME280;67762;52.476;6.046;2023-04-23T04:58:02;100621.31;;;7.90;96.17
43820;BME280;67762;52.476;6.046;2023-04-23T05:00:28;100617.69;;;7.91;95.90
43820;BME280;67762;52.476;6.046;2023-04-23T05:02:55;100625.38;;;7.94;95.78
43820;BME280;67762;52.476;6.046;2023-04-23T05:05:22;100629.38;;;7.98;95.88
43820;BME280;67762;52.476;6.046;2023-04-23T05:07:48;100625.94;;;8.05;96.10
43820;BME280;67762;52.476;6.046;2023-04-23T05:10:14;100631.50;;;8.12;95.79
43820;BME280;67762;52.476;6.046;2023-04-23T05:12:41;100618.38;;;8.10;95.97
43820;BME280;67762;52.476;6.046;2023-04-23T05:15:09;100610.84;;;8.06;95.53
43820;BME280;67762;52.476;6.046;2023-04-23T05:17:44;100609.31;;;8.03;95.40
43820;BME280;67762;52.476;6.046;2023-04-23T05:20:10;100614.50;;;8.05;95.96
43820;BME280;67762;52.476;6.046;2023-04-23T05:22:39;100617.00;;;8.06;96.27
43820;BME280;67762;52.476;6.046;2023-04-23T05:25:06;100607.25;;;8.15;95.43
43820;BME280;67762;52.476;6.046;2023-04-23T05:27:33;100618.34;;;8.28;96.23
43820;BME280;67762;52.476;6.046;2023-04-23T05:30:00;100615.16;;;8.42;95.56
43820;BME280;67762;52.476;6.046;2023-04-23T05:32:26;100625.53;;;8.53;95.97
43820;BME280;67762;52.476;6.046;2023-04-23T05:34:51;100629.13;;;8.70;95.75
43820;BME280;67762;52.476;6.046;2023-04-23T05:37:17;100624.69;;;8.78;95.69
43820;BME280;67762;52.476;6.046;2023-04-23T05:39:43;100623.53;;;8.81;95.81
43820;BME280;67762;52.476;6.046;2023-04-23T05:42:09;100611.06;;;8.81;95.86
43820;BME280;67762;52.476;6.046;2023-04-23T05:44:35;100603.66;;;8.93;95.69
43820;BME280;67762;52.476;6.046;2023-04-23T05:47:01;100608.38;;;9.07;95.54
43820;BME280;67762;52.476;6.046;2023-04-23T05:49:26;100617.28;;;9.24;95.21
43820;BME280;67762;52.476;6.046;2023-04-23T05:51:52;100613.47;;;9.34;94.96
43820;BME280;67762;52.476;6.046;2023-04-23T05:54:18;100610.50;;;9.37;94.64
43820;BME280;67762;52.476;6.046;2023-04-23T05:56:43;100615.63;;;9.39;94.19
43820;BME280;67762;52.476;6.046;2023-04-23T05:59:10;100605.19;;;9.46;93.61
43820;BME280;67762;52.476;6.046;2023-04-23T06:01:36;100609.88;;;9.60;93.40
43820;BME280;67762;52.476;6.046;2023-04-23T06:04:02;100617.22;;;9.66;93.24
43820;BME280;67762;52.476;6.046;2023-04-23T06:06:27;100615.88;;;9.70;92.73
43820;BME280;67762;52.476;6.046;2023-04-23T06:08:53;100625.91;;;9.76;92.42
43820;BME280;67762;52.476;6.046;2023-04-23T06:11:19;100618.22;;;9.73;92.24
43820;BME280;67762;52.476;6.046;2023-04-23T06:13:46;100607.88;;;9.62;91.54
43820;BME280;67762;52.476;6.046;2023-04-23T06:16:11;100606.72;;;9.56;91.21
43820;BME280;67762;52.476;6.046;2023-04-23T06:18:37;100615.34;;;9.58;90.97
43820;BME280;67762;52.476;6.046;2023-04-23T06:21:03;100612.56;;;9.68;90.96
43820;BME280;67762;52.476;6.046;2023-04-23T06:23:31;100615.06;;;9.77;90.61
43820;BME280;67762;52.476;6.046;2023-04-23T06:25:56;100610.56;;;9.78;90.82
43820;BME280;67762;52.476;6.046;2023-04-23T06:28:22;100600.41;;;9.73;90.93
43820;BME280;67762;52.476;6.046;2023-04-23T06:31:11;100595.72;;;9.59;90.40
43820;BME280;67762;52.476;6.046;2023-04-23T06:33:37;100598.38;;;9.51;90.44
43820;BME280;67762;52.476;6.046;2023-04-23T06:36:04;100601.03;;;9.43;90.70
43820;BME280;67762;52.476;6.046;2023-04-23T06:38:30;100600.88;;;9.61;91.09
43820;BME280;67762;52.476;6.046;2023-04-23T06:40:56;100603.59;;;9.93;91.04
43820;BME280;67762;52.476;6.046;2023-04-23T06:43:23;100610.31;;;10.29;91.60
43820;BME280;67762;52.476;6.046;2023-04-23T06:46:18;100603.28;;;10.61;91.13
43820;BME280;67762;52.476;6.046;2023-04-23T06:48:44;100605.88;;;10.85;90.88
43820;BME280;67762;52.476;6.046;2023-04-23T06:51:10;100601.13;;;11.03;89.55
43820;BME280;67762;52.476;6.046;2023-04-23T06:53:36;100597.06;;;11.23;89.13
43820;BME280;67762;52.476;6.046;2023-04-23T06:56:02;100601.19;;;11.34;88.18
43820;BME280;67762;52.476;6.046;2023-04-23T06:58:28;100595.44;;;11.45;87.95
43820;BME280;67762;52.476;6.046;2023-04-23T07:00:57;100591.19;;;11.58;86.67
43820;BME280;67762;52.476;6.046;2023-04-23T07:03:29;100580.81;;;11.71;86.29
43820;BME280;67762;52.476;6.046;2023-04-23T07:05:56;100572.47;;;11.89;85.60
43820;BME280;67762;52.476;6.046;2023-04-23T07:08:22;100588.44;;;11.97;85.77
43820;BME280;67762;52.476;6.046;2023-04-23T07:10:48;100582.50;;;12.10;85.18
43820;BME280;67762;52.476;6.046;2023-04-23T07:13:14;100575.69;;;12.22;84.47
43820;BME280;67762;52.476;6.046;2023-04-23T07:15:41;100586.56;;;12.43;85.41
43820;BME280;67762;52.476;6.046;2023-04-23T07:18:07;100578.34;;;12.59;84.58
43820;BME280;67762;52.476;6.046;2023-04-23T07:20:33;100574.28;;;12.63;83.29
43820;BME280;67762;52.476;6.046;2023-04-23T07:22:59;100559.91;;;12.64;82.66
43820;BME280;67762;52.476;6.046;2023-04-23T07:25:25;100568.88;;;12.71;82.35
43820;BME280;67762;52.476;6.046;2023-04-23T07:27:52;100558.81;;;12.88;82.84
43820;BME280;67762;52.476;6.046;2023-04-23T07:30:19;100562.41;;;13.10;83.06
43820;BME280;67762;52.476;6.046;2023-04-23T07:32:45;100562.19;;;13.26;82.45
43820;BME280;67762;52.476;6.046;2023-04-23T07:35:11;100557.66;;;13.41;82.08
43820;BME280;67762;52.476;6.046;2023-04-23T07:37:36;100555.22;;;13.67;82.55
43820;BME280;67762;52.476;6.046;2023-04-23T07:40:03;100562.09;;;13.91;81.57
43820;BME280;67762;52.476;6.046;2023-04-23T07:42:30;100566.09;;;14.01;80.32
43820;BME280;67762;52.476;6.046;2023-04-23T07:44:56;100558.53;;;14.12;79.90
43820;BME280;67762;52.476;6.046;2023-04-23T07:47:22;100554.72;;;14.21;79.20
43820;BME280;67762;52.476;6.046;2023-04-23T07:49:47;100556.41;;;14.28;79.41
43820;BME280;67762;52.476;6.046;2023-04-23T07:52:13;100555.53;;;14.42;78.96
43820;BME280;67762;52.476;6.046;2023-04-23T07:54:39;100562.78;;;14.48;78.47
43820;BME280;67762;52.476;6.046;2023-04-23T07:57:05;100558.28;;;14.55;78.42
43820;BME280;67762;52.476;6.046;2023-04-23T07:59:31;100561.09;;;14.69;78.54
43820;BME280;67762;52.476;6.046;2023-04-23T08:01:56;100557.28;;;14.91;77.89
43820;BME280;67762;52.476;6.046;2023-04-23T08:04:22;100553.03;;;15.09;77.05
43820;BME280;67762;52.476;6.046;2023-04-23T08:06:48;100551.00;;;15.24;76.46
43820;BME280;67762;52.476;6.046;2023-04-23T08:09:13;100553.13;;;15.36;76.03
43820;BME280;67762;52.476;6.046;2023-04-23T08:11:40;100556.00;;;15.34;75.70
43820;BME280;67762;52.476;6.046;2023-04-23T08:14:06;100545.44;;;15.33;74.10
43820;BME280;67762;52.476;6.046;2023-04-23T08:16:32;100547.50;;;15.31;73.12
43820;BME280;67762;52.476;6.046;2023-04-23T08:18:57;100550.41;;;15.36;73.63
43820;BME280;67762;52.476;6.046;2023-04-23T08:21:23;100546.94;;;15.42;73.44
43820;BME280;67762;52.476;6.046;2023-04-23T08:23:51;100533.97;;;15.58;74.34
43820;BME280;67762;52.476;6.046;2023-04-23T08:26:17;100534.41;;;15.62;72.46
43820;BME280;67762;52.476;6.046;2023-04-23T08:28:43;100548.44;;;15.51;73.03
43820;BME280;67762;52.476;6.046;2023-04-23T08:31:09;100546.38;;;15.53;72.76
43820;BME280;67762;52.476;6.046;2023-04-23T08:33:35;100540.41;;;15.64;72.44
43820;BME280;67762;52.476;6.046;2023-04-23T08:36:00;100544.38;;;15.88;73.40
43820;BME280;67762;52.476;6.046;2023-04-23T08:38:26;100537.75;;;16.16;74.66
43820;BME280;67762;52.476;6.046;2023-04-23T08:40:55;100542.94;;;16.31;73.25
43820;BME280;67762;52.476;6.046;2023-04-23T08:43:30;100553.50;;;16.46;72.07
43820;BME280;67762;52.476;6.046;2023-04-23T08:46:01;100544.59;;;16.71;72.63
43820;BME280;67762;52.476;6.046;2023-04-23T08:48:29;100551.38;;;16.87;70.06
43820;BME280;67762;52.476;6.046;2023-04-23T08:50:56;100545.97;;;16.93;70.65
43820;BME280;67762;52.476;6.046;2023-04-23T08:53:25;100552.31;;;17.12;70.43
43820;BME280;67762;52.476;6.046;2023-04-23T08:55:54;100535.88;;;17.27;68.95
43820;BME280;67762;52.476;6.046;2023-04-23T08:58:21;100536.41;;;17.42;67.81
43820;BME280;67762;52.476;6.046;2023-04-23T09:00:48;100533.69;;;17.48;67.19
43820;BME280;67762;52.476;6.046;2023-04-23T09:03:18;100523.41;;;17.32;65.90
43820;BME280;67762;52.476;6.046;2023-04-23T09:05:45;100517.88;;;17.52;65.89
43820;BME280;67762;52.476;6.046;2023-04-23T09:08:11;100521.97;;;17.68;65.38
43820;BME280;67762;52.476;6.046;2023-04-23T09:10:39;100520.41;;;17.47;64.64
43820;BME280;67762;52.476;6.046;2023-04-23T09:13:06;100527.97;;;17.32;65.60
43820;BME280;67762;52.476;6.046;2023-04-23T09:15:32;100526.19;;;17.50;65.39
43820;BME280;67762;52.476;6.046;2023-04-23T09:18:03;100506.78;;;17.35;65.64
43820;BME280;67762;52.476;6.046;2023-04-23T09:20:28;100514.69;;;17.30;66.03
43820;BME280;67762;52.476;6.046;2023-04-23T09:22:54;100511.44;;;17.60;65.90
43820;BME280;67762;52.476;6.046;2023-04-23T09:25:22;100494.03;;;17.87;63.93
43820;BME280;67762;52.476;6.046;2023-04-23T09:27:51;100509.25;;;17.43;62.69
43820;BME280;67762;52.476;6.046;2023-04-23T09:30:17;100507.03;;;17.27;64.06
43820;BME280;67762;52.476;6.046;2023-04-23T09:32:44;100502.94;;;17.18;64.63
43820;BME280;67762;52.476;6.046;2023-04-23T09:35:15;100500.69;;;17.15;63.56
43820;BME280;67762;52.476;6.046;2023-04-23T09:37:43;100505.13;;;17.34;64.43
43820;BME280;67762;52.476;6.046;2023-04-23T09:40:17;100495.56;;;17.76;63.03
43820;BME280;67762;52.476;6.046;2023-04-23T09:42:49;100496.88;;;17.67;62.55
43820;BME280;67762;52.476;6.046;2023-04-23T09:45:15;100497.72;;;17.61;62.26
43820;BME280;67762;52.476;6.046;2023-04-23T09:47:51;100493.66;;;17.45;62.29
43820;BME280;67762;52.476;6.046;2023-04-23T09:50:18;100491.22;;;17.37;63.03
43820;BME280;67762;52.476;6.046;2023-04-23T09:52:44;100493.34;;;17.67;63.46
43820;BME280;67762;52.476;6.046;2023-04-23T09:55:10;100497.03;;;17.97;63.44
43820;BME280;67762;52.476;6.046;2023-04-23T09:57:36;100490.66;;;18.16;61.06
43820;BME280;67762;52.476;6.046;2023-04-23T10:00:13;100487.25;;;18.02;60.19
43820;BME280;67762;52.476;6.046;2023-04-23T10:02:48;100480.38;;;18.06;58.55
43820;BME280;67762;52.476;6.046;2023-04-23T10:05:16;100476.53;;;17.96;57.92
43820;BME280;67762;52.476;6.046;2023-04-23T10:07:46;100482.91;;;18.01;56.93
43820;BME280;67762;52.476;6.046;2023-04-23T10:10:14;100472.69;;;18.28;56.82
43820;BME280;67762;52.476;6.046;2023-04-23T10:12:41;100473.56;;;18.22;55.84
43820;BME280;67762;52.476;6.046;2023-04-23T10:15:08;100477.72;;;18.00;55.82
43820;BME280;67762;52.476;6.046;2023-04-23T10:17:35;100478.38;;;18.20;55.98
43820;BME280;67762;52.476;6.046;2023-04-23T10:20:01;100473.66;;;18.34;55.25
43820;BME280;67762;52.476;6.046;2023-04-23T10:22:29;100463.13;;;18.50;54.20
43820;BME280;67762;52.476;6.046;2023-04-23T10:24:56;100485.28;;;18.34;53.49
43820;BME280;67762;52.476;6.046;2023-04-23T10:27:29;100468.94;;;18.47;53.53
43820;BME280;67762;52.476;6.046;2023-04-23T10:29:59;100481.72;;;18.40;52.67
43820;BME280;67762;52.476;6.046;2023-04-23T10:32:26;100472.19;;;18.38;50.75
43820;BME280;67762;52.476;6.046;2023-04-23T10:34:52;100464.91;;;18.13;50.25
43820;BME280;67762;52.476;6.046;2023-04-23T10:37:18;100469.88;;;18.17;51.80
43820;BME280;67762;52.476;6.046;2023-04-23T10:39:48;100460.16;;;18.16;50.74
43820;BME280;67762;52.476;6.046;2023-04-23T10:42:15;100469.50;;;18.13;50.09
43820;BME280;67762;52.476;6.046;2023-04-23T10:44:42;100464.63;;;18.22;49.54
43820;BME280;67762;52.476;6.046;2023-04-23T10:47:15;100465.16;;;18.30;49.86
43820;BME280;67762;52.476;6.046;2023-04-23T10:49:41;100455.03;;;18.44;50.11
43820;BME280;67762;52.476;6.046;2023-04-23T10:52:15;100449.03;;;18.48;48.61
43820;BME280;67762;52.476;6.046;2023-04-23T10:55:02;100449.91;;;18.79;47.62
43820;BME280;67762;52.476;6.046;2023-04-23T10:57:27;100456.25;;;19.02;48.79
43820;BME280;67762;52.476;6.046;2023-04-23T10:59:54;100438.91;;;19.40;48.41
43820;BME280;67762;52.476;6.046;2023-04-23T11:02:22;100431.03;;;19.50;45.79
43820;BME280;67762;52.476;6.046;2023-04-23T11:04:57;100417.53;;;19.50;46.67
43820;BME280;67762;52.476;6.046;2023-04-23T11:07:31;100421.28;;;19.60;45.30
43820;BME280;67762;52.476;6.046;2023-04-23T11:10:10;100425.09;;;19.59;44.13
43820;BME280;67762;52.476;6.046;2023-04-23T11:12:38;100412.97;;;19.73;43.58
43820;BME280;67762;52.476;6.046;2023-04-23T11:15:15;100422.53;;;19.88;44.97
43820;BME280;67762;52.476;6.046;2023-04-23T11:20:14;100421.28;;;19.60;44.87
43820;BME280;67762;52.476;6.046;2023-04-23T11:22:44;100426.59;;;19.25;44.20
43820;BME280;67762;52.476;6.046;2023-04-23T11:25:11;100417.41;;;19.15;44.34
43820;BME280;67762;52.476;6.046;2023-04-23T11:27:42;100408.19;;;19.04;43.72
43820;BME280;67762;52.476;6.046;2023-04-23T11:30:13;100414.47;;;18.87;43.92
43820;BME280;67762;52.476;6.046;2023-04-23T11:32:41;100415.16;;;18.82;44.15
43820;BME280;67762;52.476;6.046;2023-04-23T11:35:08;100423.16;;;18.89;45.05
43820;BME280;67762;52.476;6.046;2023-04-23T11:37:42;100408.00;;;18.88;44.38
43820;BME280;67762;52.476;6.046;2023-04-23T11:40:10;100403.25;;;18.83;44.40
43820;BME280;67762;52.476;6.046;2023-04-23T11:42:55;100408.66;;;19.01;46.06
43820;BME280;67762;52.476;6.046;2023-04-23T11:45:23;100397.00;;;19.01;45.65
43820;BME280;67762;52.476;6.046;2023-04-23T11:47:54;100402.22;;;18.84;45.42
43820;BME280;67762;52.476;6.046;2023-04-23T11:50:28;100392.91;;;18.80;45.00
43820;BME280;67762;52.476;6.046;2023-04-23T11:52:55;100401.97;;;18.86;45.28
43820;BME280;67762;52.476;6.046;2023-04-23T11:55:22;100400.75;;;19.30;46.83
43820;BME280;67762;52.476;6.046;2023-04-23T11:57:49;100393.56;;;19.23;44.46
43820;BME280;67762;52.476;6.046;2023-04-23T12:00:20;100388.94;;;19.12;45.32
43820;BME280;67762;52.476;6.046;2023-04-23T12:02:56;100382.75;;;19.23;44.75
43820;BME280;67762;52.476;6.046;2023-04-23T12:05:38;100358.72;;;19.15;43.78
43820;BME280;67762;52.476;6.046;2023-04-23T12:08:13;100368.22;;;19.06;43.47
43820;BME280;67762;52.476;6.046;2023-04-23T12:10:50;100360.94;;;19.07;43.65
43820;BME280;67762;52.476;6.046;2023-04-23T12:13:21;100368.19;;;18.95;44.71
43820;BME280;67762;52.476;6.046;2023-04-23T12:15:52;100356.31;;;18.96;43.83
43820;BME280;67762;52.476;6.046;2023-04-23T12:18:29;100353.63;;;18.96;43.87
43820;BME280;67762;52.476;6.046;2023-04-23T12:21:03;100361.06;;;19.12;43.95
43820;BME280;67762;52.476;6.046;2023-04-23T12:23:29;100346.50;;;19.24;42.33
43820;BME280;67762;52.476;6.046;2023-04-23T12:25:55;100353.75;;;19.42;43.65
43820;BME280;67762;52.476;6.046;2023-04-23T12:28:22;100353.44;;;19.85;43.86
43820;BME280;67762;52.476;6.046;2023-04-23T12:30:49;100337.75;;;19.99;42.67
43820;BME280;67762;52.476;6.046;2023-04-23T12:33:15;100332.09;;;20.00;41.98
43820;BME280;67762;52.476;6.046;2023-04-23T12:35:50;100327.88;;;20.04;41.93
43820;BME280;67762;52.476;6.046;2023-04-23T12:38:23;100325.53;;;19.84;41.15
43820;BME280;67762;52.476;6.046;2023-04-23T12:40:57;100326.34;;;19.85;41.58
43820;BME280;67762;52.476;6.046;2023-04-23T12:43:24;100322.81;;;19.96;42.37
43820;BME280;67762;52.476;6.046;2023-04-23T12:45:50;100314.44;;;19.74;42.35
43820;BME280;67762;52.476;6.046;2023-04-23T12:48:16;100316.47;;;19.79;42.39
43820;BME280;67762;52.476;6.046;2023-04-23T12:50:44;100317.97;;;19.98;43.27
43820;BME280;67762;52.476;6.046;2023-04-23T12:53:10;100299.75;;;19.70;41.83
43820;BME280;67762;52.476;6.046;2023-04-23T12:55:35;100314.88;;;19.37;43.42
43820;BME280;67762;52.476;6.046;2023-04-23T12:58:04;100299.69;;;19.36;43.15
43820;BME280;67762;52.476;6.046;2023-04-23T13:00:29;100302.41;;;19.24;42.24